<?xml version="1.0" encoding="UTF-8" standalone="no" ?>
<gpx xmlns="http://www.topografix.com/GPX/1/1" xmlns:xsi="http://www.w3.org/2001/XMLSchema-instance" xsi:schemaLocation="http://www.topografix.com/GPX/1/1 http://www.topografix.com/GPX/1/1/gpx.xsd" version="1.1" creator="VisuGPX - https://www.visugpx.com">
  <metadata>
    <name>Redon_Chateaulin</name>
    <desc><![CDATA[Randonnée cyclotouriste de Redon à Châteaulin par le chemin de halage du canal de Nantes à Brest avec quelques échappées vers Rostrenen, Carhaix et Pleyben.]]></desc>
  </metadata>
  <trk>
    <name><![CDATA[ACTIVE LOG 018]]></name>
    <trkseg>
      <trkpt lat="48.22653" lon="-3.96942">
        <ele>107.80505371094</ele>
        <time>2012-04-20T14:14:30Z</time>
      </trkpt>
      <trkpt lat="48.22656" lon="-3.96951">
        <ele>107.32434082031</ele>
        <time>2012-04-20T14:23:27Z</time>
      </trkpt>
      <trkpt lat="48.22651" lon="-3.96952">
        <ele>108.28564453125</ele>
        <time>2012-04-20T14:23:36Z</time>
      </trkpt>
      <trkpt lat="48.22643" lon="-3.96967">
        <ele>109.72766113281</ele>
        <time>2012-04-20T14:23:52Z</time>
      </trkpt>
      <trkpt lat="48.22642" lon="-3.96967">
        <ele>109.24694824219</ele>
        <time>2012-04-20T14:24:00Z</time>
      </trkpt>
      <trkpt lat="48.22633" lon="-3.96973">
        <ele>109.72766113281</ele>
        <time>2012-04-20T14:24:06Z</time>
      </trkpt>
      <trkpt lat="48.22584" lon="-3.97013">
        <ele>110.20825195312</ele>
        <time>2012-04-20T14:24:24Z</time>
      </trkpt>
      <trkpt lat="48.22538" lon="-3.97045">
        <ele>108.76623535156</ele>
        <time>2012-04-20T14:24:37Z</time>
      </trkpt>
      <trkpt lat="48.22467" lon="-3.97087">
        <ele>108.76623535156</ele>
        <time>2012-04-20T14:24:53Z</time>
      </trkpt>
      <trkpt lat="48.22384" lon="-3.97126">
        <ele>104.4404296875</ele>
        <time>2012-04-20T14:25:08Z</time>
      </trkpt>
      <trkpt lat="48.22297" lon="-3.97171">
        <ele>100.59509277344</ele>
        <time>2012-04-20T14:25:24Z</time>
      </trkpt>
      <trkpt lat="48.22242" lon="-3.97218">
        <ele>100.11450195312</ele>
        <time>2012-04-20T14:25:36Z</time>
      </trkpt>
      <trkpt lat="48.22189" lon="-3.97287">
        <ele>102.99829101562</ele>
        <time>2012-04-20T14:25:56Z</time>
      </trkpt>
      <trkpt lat="48.22132" lon="-3.97363">
        <ele>104.4404296875</ele>
        <time>2012-04-20T14:26:21Z</time>
      </trkpt>
      <trkpt lat="48.22131" lon="-3.97365">
        <ele>104.4404296875</ele>
        <time>2012-04-20T14:26:58Z</time>
      </trkpt>
      <trkpt lat="48.22105" lon="-3.97403">
        <ele>104.4404296875</ele>
        <time>2012-04-20T14:27:11Z</time>
      </trkpt>
      <trkpt lat="48.22052" lon="-3.97489">
        <ele>99.6337890625</ele>
        <time>2012-04-20T14:27:26Z</time>
      </trkpt>
      <trkpt lat="48.21998" lon="-3.97628">
        <ele>93.865844726562</ele>
        <time>2012-04-20T14:27:45Z</time>
      </trkpt>
      <trkpt lat="48.21972" lon="-3.97692">
        <ele>91.462524414062</ele>
        <time>2012-04-20T14:27:52Z</time>
      </trkpt>
      <trkpt lat="48.21964" lon="-3.97717">
        <ele>91.462524414062</ele>
        <time>2012-04-20T14:27:56Z</time>
      </trkpt>
      <trkpt lat="48.21964" lon="-3.97718">
        <ele>91.462524414062</ele>
        <time>2012-04-20T14:27:59Z</time>
      </trkpt>
      <trkpt lat="48.21965" lon="-3.97758">
        <ele>91.462524414062</ele>
        <time>2012-04-20T14:28:02Z</time>
      </trkpt>
      <trkpt lat="48.2193" lon="-3.9779">
        <ele>90.020629882812</ele>
        <time>2012-04-20T14:28:12Z</time>
      </trkpt>
      <trkpt lat="48.21918" lon="-3.97782">
        <ele>89.539916992188</ele>
        <time>2012-04-20T14:28:15Z</time>
      </trkpt>
      <trkpt lat="48.21882" lon="-3.97787">
        <ele>88.578735351562</ele>
        <time>2012-04-20T14:28:22Z</time>
      </trkpt>
      <trkpt lat="48.21821" lon="-3.97841">
        <ele>87.136596679688</ele>
        <time>2012-04-20T14:28:36Z</time>
      </trkpt>
      <trkpt lat="48.21805" lon="-3.97855">
        <ele>87.136596679688</ele>
        <time>2012-04-20T14:28:41Z</time>
      </trkpt>
      <trkpt lat="48.21808" lon="-3.97891">
        <ele>87.136596679688</ele>
        <time>2012-04-20T14:28:44Z</time>
      </trkpt>
      <trkpt lat="48.21778" lon="-3.97928">
        <ele>85.694580078125</ele>
        <time>2012-04-20T14:28:54Z</time>
      </trkpt>
      <trkpt lat="48.21773" lon="-3.97927">
        <ele>85.694580078125</ele>
        <time>2012-04-20T14:28:55Z</time>
      </trkpt>
      <trkpt lat="48.21764" lon="-3.97925">
        <ele>85.213989257812</ele>
        <time>2012-04-20T14:28:57Z</time>
      </trkpt>
      <trkpt lat="48.21742" lon="-3.97929">
        <ele>84.252685546875</ele>
        <time>2012-04-20T14:29:01Z</time>
      </trkpt>
      <trkpt lat="48.21649" lon="-3.97965">
        <ele>84.252685546875</ele>
        <time>2012-04-20T14:29:18Z</time>
      </trkpt>
      <trkpt lat="48.21514" lon="-3.97987">
        <ele>84.7333984375</ele>
        <time>2012-04-20T14:29:44Z</time>
      </trkpt>
      <trkpt lat="48.21417" lon="-3.98001">
        <ele>83.77197265625</ele>
        <time>2012-04-20T14:30:03Z</time>
      </trkpt>
      <trkpt lat="48.21346" lon="-3.97984">
        <ele>81.368774414062</ele>
        <time>2012-04-20T14:30:18Z</time>
      </trkpt>
      <trkpt lat="48.21223" lon="-3.9793">
        <ele>80.407470703125</ele>
        <time>2012-04-20T14:30:37Z</time>
      </trkpt>
      <trkpt lat="48.21106" lon="-3.97906">
        <ele>77.5234375</ele>
        <time>2012-04-20T14:30:56Z</time>
      </trkpt>
      <trkpt lat="48.20996" lon="-3.97939">
        <ele>73.197631835938</ele>
        <time>2012-04-20T14:31:13Z</time>
      </trkpt>
      <trkpt lat="48.20898" lon="-3.98017">
        <ele>70.3134765625</ele>
        <time>2012-04-20T14:31:31Z</time>
      </trkpt>
      <trkpt lat="48.208" lon="-3.98155">
        <ele>65.0263671875</ele>
        <time>2012-04-20T14:31:52Z</time>
      </trkpt>
      <trkpt lat="48.20713" lon="-3.98242">
        <ele>61.661743164062</ele>
        <time>2012-04-20T14:32:10Z</time>
      </trkpt>
      <trkpt lat="48.20616" lon="-3.98272">
        <ele>59.739135742188</ele>
        <time>2012-04-20T14:32:27Z</time>
      </trkpt>
      <trkpt lat="48.20507" lon="-3.9824">
        <ele>55.893798828125</ele>
        <time>2012-04-20T14:32:45Z</time>
      </trkpt>
      <trkpt lat="48.20369" lon="-3.9818">
        <ele>55.4130859375</ele>
        <time>2012-04-20T14:33:10Z</time>
      </trkpt>
      <trkpt lat="48.203" lon="-3.98096">
        <ele>52.529174804688</ele>
        <time>2012-04-20T14:33:25Z</time>
      </trkpt>
      <trkpt lat="48.20228" lon="-3.97999">
        <ele>49.645263671875</ele>
        <time>2012-04-20T14:33:42Z</time>
      </trkpt>
      <trkpt lat="48.20136" lon="-3.97945">
        <ele>46.76123046875</ele>
        <time>2012-04-20T14:33:58Z</time>
      </trkpt>
      <trkpt lat="48.20004" lon="-3.97913">
        <ele>40.993408203125</ele>
        <time>2012-04-20T14:34:20Z</time>
      </trkpt>
      <trkpt lat="48.19865" lon="-3.97872">
        <ele>35.225463867188</ele>
        <time>2012-04-20T14:34:43Z</time>
      </trkpt>
      <trkpt lat="48.19771" lon="-3.97892">
        <ele>31.380126953125</ele>
        <time>2012-04-20T14:34:59Z</time>
      </trkpt>
      <trkpt lat="48.19667" lon="-3.97977">
        <ele>26.092895507812</ele>
        <time>2012-04-20T14:35:17Z</time>
      </trkpt>
      <trkpt lat="48.19554" lon="-3.98081">
        <ele>23.689575195312</ele>
        <time>2012-04-20T14:35:40Z</time>
      </trkpt>
      <trkpt lat="48.19433" lon="-3.98188">
        <ele>21.766967773438</ele>
        <time>2012-04-20T14:36:06Z</time>
      </trkpt>
      <trkpt lat="48.19371" lon="-3.98243">
        <ele>19.844360351562</ele>
        <time>2012-04-20T14:36:22Z</time>
      </trkpt>
      <trkpt lat="48.19371" lon="-3.98243">
        <ele>20.324951171875</ele>
        <time>2012-04-20T14:36:51Z</time>
      </trkpt>
      <trkpt lat="48.19349" lon="-3.98212">
        <ele>20.324951171875</ele>
        <time>2012-04-20T14:37:02Z</time>
      </trkpt>
      <trkpt lat="48.19332" lon="-3.98179">
        <ele>19.36376953125</ele>
        <time>2012-04-20T14:37:09Z</time>
      </trkpt>
      <trkpt lat="48.19313" lon="-3.98194">
        <ele>18.883056640625</ele>
        <time>2012-04-20T14:37:16Z</time>
      </trkpt>
      <trkpt lat="48.19264" lon="-3.9828">
        <ele>18.40234375</ele>
        <time>2012-04-20T14:37:34Z</time>
      </trkpt>
      <trkpt lat="48.19217" lon="-3.98349">
        <ele>17.921752929688</ele>
        <time>2012-04-20T14:37:53Z</time>
      </trkpt>
      <trkpt lat="48.19166" lon="-3.98414">
        <ele>17.441162109375</ele>
        <time>2012-04-20T14:38:10Z</time>
      </trkpt>
      <trkpt lat="48.19152" lon="-3.98431">
        <ele>17.441162109375</ele>
        <time>2012-04-20T14:38:25Z</time>
      </trkpt>
      <trkpt lat="48.19152" lon="-3.98431">
        <ele>17.441162109375</ele>
        <time>2012-04-20T14:40:01Z</time>
      </trkpt>
      <trkpt lat="48.19152" lon="-3.98431">
        <ele>17.441162109375</ele>
        <time>2012-04-20T14:40:19Z</time>
      </trkpt>
      <trkpt lat="48.19145" lon="-3.9844">
        <ele>17.921752929688</ele>
        <time>2012-04-20T14:40:24Z</time>
      </trkpt>
      <trkpt lat="48.1912" lon="-3.98494">
        <ele>18.40234375</ele>
        <time>2012-04-20T14:40:40Z</time>
      </trkpt>
      <trkpt lat="48.19111" lon="-3.98548">
        <ele>18.883056640625</ele>
        <time>2012-04-20T14:40:55Z</time>
      </trkpt>
      <trkpt lat="48.19114" lon="-3.986">
        <ele>18.883056640625</ele>
        <time>2012-04-20T14:41:09Z</time>
      </trkpt>
      <trkpt lat="48.19115" lon="-3.98616">
        <ele>20.8056640625</ele>
        <time>2012-04-20T14:41:18Z</time>
      </trkpt>
      <trkpt lat="48.19122" lon="-3.98671">
        <ele>18.883056640625</ele>
        <time>2012-04-20T14:41:29Z</time>
      </trkpt>
      <trkpt lat="48.19118" lon="-3.9879">
        <ele>17.921752929688</ele>
        <time>2012-04-20T14:41:46Z</time>
      </trkpt>
      <trkpt lat="48.19095" lon="-3.98912">
        <ele>17.921752929688</ele>
        <time>2012-04-20T14:42:04Z</time>
      </trkpt>
      <trkpt lat="48.1909" lon="-3.98932">
        <ele>17.921752929688</ele>
        <time>2012-04-20T14:42:07Z</time>
      </trkpt>
      <trkpt lat="48.19068" lon="-3.99017">
        <ele>17.441162109375</ele>
        <time>2012-04-20T14:42:21Z</time>
      </trkpt>
      <trkpt lat="48.19067" lon="-3.99049">
        <ele>17.921752929688</ele>
        <time>2012-04-20T14:42:26Z</time>
      </trkpt>
      <trkpt lat="48.19085" lon="-3.99161">
        <ele>17.441162109375</ele>
        <time>2012-04-20T14:42:44Z</time>
      </trkpt>
      <trkpt lat="48.19142" lon="-3.99263">
        <ele>17.921752929688</ele>
        <time>2012-04-20T14:43:05Z</time>
      </trkpt>
      <trkpt lat="48.19201" lon="-3.99295">
        <ele>18.40234375</ele>
        <time>2012-04-20T14:43:20Z</time>
      </trkpt>
      <trkpt lat="48.19223" lon="-3.99293">
        <ele>18.40234375</ele>
        <time>2012-04-20T14:43:26Z</time>
      </trkpt>
      <trkpt lat="48.19308" lon="-3.99271">
        <ele>18.883056640625</ele>
        <time>2012-04-20T14:43:48Z</time>
      </trkpt>
      <trkpt lat="48.19325" lon="-3.99277">
        <ele>18.883056640625</ele>
        <time>2012-04-20T14:43:52Z</time>
      </trkpt>
      <trkpt lat="48.19396" lon="-3.99295">
        <ele>17.441162109375</ele>
        <time>2012-04-20T14:44:09Z</time>
      </trkpt>
      <trkpt lat="48.19488" lon="-3.99321">
        <ele>16.479736328125</ele>
        <time>2012-04-20T14:44:32Z</time>
      </trkpt>
      <trkpt lat="48.19589" lon="-3.99361">
        <ele>15.518432617188</ele>
        <time>2012-04-20T14:44:56Z</time>
      </trkpt>
      <trkpt lat="48.19666" lon="-3.99415">
        <ele>15.518432617188</ele>
        <time>2012-04-20T14:45:19Z</time>
      </trkpt>
      <trkpt lat="48.1973" lon="-3.99467">
        <ele>14.557006835938</ele>
        <time>2012-04-20T14:45:40Z</time>
      </trkpt>
      <trkpt lat="48.19789" lon="-3.99557">
        <ele>15.518432617188</ele>
        <time>2012-04-20T14:46:02Z</time>
      </trkpt>
      <trkpt lat="48.19832" lon="-3.99635">
        <ele>15.518432617188</ele>
        <time>2012-04-20T14:46:19Z</time>
      </trkpt>
      <trkpt lat="48.19854" lon="-3.99711">
        <ele>16.479736328125</ele>
        <time>2012-04-20T14:46:32Z</time>
      </trkpt>
      <trkpt lat="48.19858" lon="-3.99811">
        <ele>16.96044921875</ele>
        <time>2012-04-20T14:46:49Z</time>
      </trkpt>
      <trkpt lat="48.19857" lon="-3.99825">
        <ele>16.479736328125</ele>
        <time>2012-04-20T14:46:51Z</time>
      </trkpt>
      <trkpt lat="48.19854" lon="-3.9986">
        <ele>17.441162109375</ele>
        <time>2012-04-20T14:46:56Z</time>
      </trkpt>
      <trkpt lat="48.1985" lon="-3.9992">
        <ele>16.479736328125</ele>
        <time>2012-04-20T14:47:05Z</time>
      </trkpt>
      <trkpt lat="48.19852" lon="-3.99952">
        <ele>16.96044921875</ele>
        <time>2012-04-20T14:47:10Z</time>
      </trkpt>
      <trkpt lat="48.19861" lon="-3.99974">
        <ele>15.518432617188</ele>
        <time>2012-04-20T14:47:14Z</time>
      </trkpt>
      <trkpt lat="48.19906" lon="-4.00066">
        <ele>15.037719726562</ele>
        <time>2012-04-20T14:47:31Z</time>
      </trkpt>
      <trkpt lat="48.19936" lon="-4.0014">
        <ele>15.037719726562</ele>
        <time>2012-04-20T14:47:45Z</time>
      </trkpt>
      <trkpt lat="48.19947" lon="-4.00212">
        <ele>13.595825195312</ele>
        <time>2012-04-20T14:47:58Z</time>
      </trkpt>
      <trkpt lat="48.19945" lon="-4.00275">
        <ele>18.40234375</ele>
        <time>2012-04-20T14:48:09Z</time>
      </trkpt>
      <trkpt lat="48.19931" lon="-4.00335">
        <ele>22.24755859375</ele>
        <time>2012-04-20T14:48:20Z</time>
      </trkpt>
      <trkpt lat="48.1991" lon="-4.00436">
        <ele>23.689575195312</ele>
        <time>2012-04-20T14:48:36Z</time>
      </trkpt>
      <trkpt lat="48.19904" lon="-4.00481">
        <ele>22.24755859375</ele>
        <time>2012-04-20T14:48:43Z</time>
      </trkpt>
      <trkpt lat="48.19893" lon="-4.00567">
        <ele>22.24755859375</ele>
        <time>2012-04-20T14:48:56Z</time>
      </trkpt>
      <trkpt lat="48.19887" lon="-4.00619">
        <ele>22.24755859375</ele>
        <time>2012-04-20T14:49:04Z</time>
      </trkpt>
      <trkpt lat="48.19878" lon="-4.00672">
        <ele>23.689575195312</ele>
        <time>2012-04-20T14:49:13Z</time>
      </trkpt>
      <trkpt lat="48.19865" lon="-4.00728">
        <ele>23.689575195312</ele>
        <time>2012-04-20T14:49:22Z</time>
      </trkpt>
      <trkpt lat="48.19836" lon="-4.00805">
        <ele>22.24755859375</ele>
        <time>2012-04-20T14:49:36Z</time>
      </trkpt>
      <trkpt lat="48.19823" lon="-4.00837">
        <ele>22.728271484375</ele>
        <time>2012-04-20T14:49:42Z</time>
      </trkpt>
      <trkpt lat="48.198" lon="-4.00892">
        <ele>21.766967773438</ele>
        <time>2012-04-20T14:49:52Z</time>
      </trkpt>
      <trkpt lat="48.19774" lon="-4.00955">
        <ele>19.36376953125</ele>
        <time>2012-04-20T14:50:03Z</time>
      </trkpt>
      <trkpt lat="48.19758" lon="-4.00994">
        <ele>20.324951171875</ele>
        <time>2012-04-20T14:50:10Z</time>
      </trkpt>
      <trkpt lat="48.19753" lon="-4.01012">
        <ele>21.286376953125</ele>
        <time>2012-04-20T14:50:13Z</time>
      </trkpt>
      <trkpt lat="48.19748" lon="-4.01071">
        <ele>26.573608398438</ele>
        <time>2012-04-20T14:50:24Z</time>
      </trkpt>
      <trkpt lat="48.19745" lon="-4.0111">
        <ele>28.015502929688</ele>
        <time>2012-04-20T14:50:30Z</time>
      </trkpt>
      <trkpt lat="48.19741" lon="-4.01171">
        <ele>26.092895507812</ele>
        <time>2012-04-20T14:50:39Z</time>
      </trkpt>
      <trkpt lat="48.19745" lon="-4.01219">
        <ele>26.573608398438</ele>
        <time>2012-04-20T14:50:46Z</time>
      </trkpt>
      <trkpt lat="48.19747" lon="-4.01238">
        <ele>27.054321289062</ele>
        <time>2012-04-20T14:50:49Z</time>
      </trkpt>
      <trkpt lat="48.19757" lon="-4.01283">
        <ele>25.6123046875</ele>
        <time>2012-04-20T14:50:57Z</time>
      </trkpt>
      <trkpt lat="48.19789" lon="-4.01352">
        <ele>25.131713867188</ele>
        <time>2012-04-20T14:51:09Z</time>
      </trkpt>
      <trkpt lat="48.19798" lon="-4.01365">
        <ele>25.131713867188</ele>
        <time>2012-04-20T14:51:12Z</time>
      </trkpt>
      <trkpt lat="48.19853" lon="-4.01412">
        <ele>20.324951171875</ele>
        <time>2012-04-20T14:51:27Z</time>
      </trkpt>
      <trkpt lat="48.19924" lon="-4.01433">
        <ele>17.921752929688</ele>
        <time>2012-04-20T14:51:44Z</time>
      </trkpt>
      <trkpt lat="48.20011" lon="-4.01452">
        <ele>15.9990234375</ele>
        <time>2012-04-20T14:52:05Z</time>
      </trkpt>
      <trkpt lat="48.2002" lon="-4.01454">
        <ele>15.518432617188</ele>
        <time>2012-04-20T14:52:07Z</time>
      </trkpt>
      <trkpt lat="48.2005" lon="-4.01461">
        <ele>14.557006835938</ele>
        <time>2012-04-20T14:52:14Z</time>
      </trkpt>
      <trkpt lat="48.20089" lon="-4.01453">
        <ele>14.076416015625</ele>
        <time>2012-04-20T14:52:23Z</time>
      </trkpt>
      <trkpt lat="48.20128" lon="-4.01434">
        <ele>15.518432617188</ele>
        <time>2012-04-20T14:52:32Z</time>
      </trkpt>
      <trkpt lat="48.20215" lon="-4.01377">
        <ele>17.441162109375</ele>
        <time>2012-04-20T14:52:54Z</time>
      </trkpt>
      <trkpt lat="48.20293" lon="-4.013">
        <ele>19.844360351562</ele>
        <time>2012-04-20T14:53:17Z</time>
      </trkpt>
      <trkpt lat="48.20355" lon="-4.0124">
        <ele>19.844360351562</ele>
        <time>2012-04-20T14:53:35Z</time>
      </trkpt>
      <trkpt lat="48.20413" lon="-4.01181">
        <ele>19.844360351562</ele>
        <time>2012-04-20T14:53:52Z</time>
      </trkpt>
      <trkpt lat="48.20479" lon="-4.01105">
        <ele>18.40234375</ele>
        <time>2012-04-20T14:54:11Z</time>
      </trkpt>
      <trkpt lat="48.20552" lon="-4.01011">
        <ele>17.921752929688</ele>
        <time>2012-04-20T14:54:32Z</time>
      </trkpt>
      <trkpt lat="48.20589" lon="-4.00956">
        <ele>16.96044921875</ele>
        <time>2012-04-20T14:54:44Z</time>
      </trkpt>
      <trkpt lat="48.20603" lon="-4.00936">
        <ele>15.9990234375</ele>
        <time>2012-04-20T14:54:48Z</time>
      </trkpt>
      <trkpt lat="48.20668" lon="-4.00859">
        <ele>17.441162109375</ele>
        <time>2012-04-20T14:55:09Z</time>
      </trkpt>
      <trkpt lat="48.20696" lon="-4.00841">
        <ele>17.921752929688</ele>
        <time>2012-04-20T14:55:20Z</time>
      </trkpt>
      <trkpt lat="48.20765" lon="-4.00799">
        <ele>17.921752929688</ele>
        <time>2012-04-20T14:55:38Z</time>
      </trkpt>
      <trkpt lat="48.20846" lon="-4.00824">
        <ele>16.96044921875</ele>
        <time>2012-04-20T14:55:58Z</time>
      </trkpt>
      <trkpt lat="48.20909" lon="-4.00878">
        <ele>15.518432617188</ele>
        <time>2012-04-20T14:56:15Z</time>
      </trkpt>
      <trkpt lat="48.21028" lon="-4.00999">
        <ele>14.557006835938</ele>
        <time>2012-04-20T14:56:48Z</time>
      </trkpt>
      <trkpt lat="48.21133" lon="-4.01099">
        <ele>13.595825195312</ele>
        <time>2012-04-20T14:57:18Z</time>
      </trkpt>
      <trkpt lat="48.2119" lon="-4.01172">
        <ele>13.115112304688</ele>
        <time>2012-04-20T14:57:35Z</time>
      </trkpt>
      <trkpt lat="48.21199" lon="-4.01185">
        <ele>13.115112304688</ele>
        <time>2012-04-20T14:57:38Z</time>
      </trkpt>
      <trkpt lat="48.21224" lon="-4.01222">
        <ele>12.634399414062</ele>
        <time>2012-04-20T14:57:46Z</time>
      </trkpt>
      <trkpt lat="48.21236" lon="-4.01259">
        <ele>13.115112304688</ele>
        <time>2012-04-20T14:57:52Z</time>
      </trkpt>
      <trkpt lat="48.21247" lon="-4.0131">
        <ele>12.15380859375</ele>
        <time>2012-04-20T14:58:00Z</time>
      </trkpt>
      <trkpt lat="48.21249" lon="-4.01327">
        <ele>12.15380859375</ele>
        <time>2012-04-20T14:58:03Z</time>
      </trkpt>
      <trkpt lat="48.21254" lon="-4.01367">
        <ele>11.192504882812</ele>
        <time>2012-04-20T14:58:09Z</time>
      </trkpt>
      <trkpt lat="48.21258" lon="-4.01401">
        <ele>11.192504882812</ele>
        <time>2012-04-20T14:58:14Z</time>
      </trkpt>
      <trkpt lat="48.21261" lon="-4.01425">
        <ele>11.673217773438</ele>
        <time>2012-04-20T14:58:18Z</time>
      </trkpt>
      <trkpt lat="48.21264" lon="-4.01444">
        <ele>11.673217773438</ele>
        <time>2012-04-20T14:58:21Z</time>
      </trkpt>
      <trkpt lat="48.21263" lon="-4.0149">
        <ele>13.595825195312</ele>
        <time>2012-04-20T14:58:28Z</time>
      </trkpt>
      <trkpt lat="48.21248" lon="-4.01635">
        <ele>12.634399414062</ele>
        <time>2012-04-20T14:58:49Z</time>
      </trkpt>
      <trkpt lat="48.21231" lon="-4.01713">
        <ele>14.557006835938</ele>
        <time>2012-04-20T14:59:00Z</time>
      </trkpt>
      <trkpt lat="48.21224" lon="-4.01731">
        <ele>15.037719726562</ele>
        <time>2012-04-20T14:59:03Z</time>
      </trkpt>
      <trkpt lat="48.21179" lon="-4.01814">
        <ele>13.115112304688</ele>
        <time>2012-04-20T14:59:18Z</time>
      </trkpt>
      <trkpt lat="48.2115" lon="-4.01851">
        <ele>13.115112304688</ele>
        <time>2012-04-20T14:59:27Z</time>
      </trkpt>
      <trkpt lat="48.21092" lon="-4.01908">
        <ele>14.076416015625</ele>
        <time>2012-04-20T14:59:44Z</time>
      </trkpt>
      <trkpt lat="48.2104" lon="-4.01955">
        <ele>13.595825195312</ele>
        <time>2012-04-20T14:59:59Z</time>
      </trkpt>
      <trkpt lat="48.20981" lon="-4.01995">
        <ele>13.115112304688</ele>
        <time>2012-04-20T15:00:18Z</time>
      </trkpt>
      <trkpt lat="48.20949" lon="-4.02017">
        <ele>12.634399414062</ele>
        <time>2012-04-20T15:00:33Z</time>
      </trkpt>
      <trkpt lat="48.20902" lon="-4.02072">
        <ele>12.634399414062</ele>
        <time>2012-04-20T15:00:50Z</time>
      </trkpt>
      <trkpt lat="48.20821" lon="-4.02167">
        <ele>12.634399414062</ele>
        <time>2012-04-20T15:01:14Z</time>
      </trkpt>
      <trkpt lat="48.20718" lon="-4.02255">
        <ele>12.634399414062</ele>
        <time>2012-04-20T15:01:38Z</time>
      </trkpt>
      <trkpt lat="48.20668" lon="-4.02273">
        <ele>12.634399414062</ele>
        <time>2012-04-20T15:01:49Z</time>
      </trkpt>
      <trkpt lat="48.20595" lon="-4.02272">
        <ele>14.557006835938</ele>
        <time>2012-04-20T15:02:05Z</time>
      </trkpt>
      <trkpt lat="48.20581" lon="-4.02269">
        <ele>14.557006835938</ele>
        <time>2012-04-20T15:02:08Z</time>
      </trkpt>
      <trkpt lat="48.20503" lon="-4.02239">
        <ele>15.9990234375</ele>
        <time>2012-04-20T15:02:25Z</time>
      </trkpt>
      <trkpt lat="48.20494" lon="-4.02235">
        <ele>16.479736328125</ele>
        <time>2012-04-20T15:02:27Z</time>
      </trkpt>
      <trkpt lat="48.20421" lon="-4.02205">
        <ele>20.324951171875</ele>
        <time>2012-04-20T15:02:44Z</time>
      </trkpt>
      <trkpt lat="48.20374" lon="-4.02194">
        <ele>19.844360351562</ele>
        <time>2012-04-20T15:02:55Z</time>
      </trkpt>
      <trkpt lat="48.20356" lon="-4.02193">
        <ele>19.36376953125</ele>
        <time>2012-04-20T15:02:59Z</time>
      </trkpt>
      <trkpt lat="48.20335" lon="-4.02193">
        <ele>18.40234375</ele>
        <time>2012-04-20T15:03:04Z</time>
      </trkpt>
      <trkpt lat="48.20318" lon="-4.02192">
        <ele>17.921752929688</ele>
        <time>2012-04-20T15:03:08Z</time>
      </trkpt>
      <trkpt lat="48.20202" lon="-4.02195">
        <ele>15.037719726562</ele>
        <time>2012-04-20T15:03:33Z</time>
      </trkpt>
      <trkpt lat="48.20141" lon="-4.02196">
        <ele>15.037719726562</ele>
        <time>2012-04-20T15:03:48Z</time>
      </trkpt>
      <trkpt lat="48.20051" lon="-4.02194">
        <ele>13.595825195312</ele>
        <time>2012-04-20T15:04:11Z</time>
      </trkpt>
      <trkpt lat="48.19972" lon="-4.02202">
        <ele>13.115112304688</ele>
        <time>2012-04-20T15:04:31Z</time>
      </trkpt>
      <trkpt lat="48.19893" lon="-4.02216">
        <ele>12.15380859375</ele>
        <time>2012-04-20T15:04:52Z</time>
      </trkpt>
      <trkpt lat="48.19817" lon="-4.0224">
        <ele>11.673217773438</ele>
        <time>2012-04-20T15:05:12Z</time>
      </trkpt>
      <trkpt lat="48.1977" lon="-4.02249">
        <ele>12.15380859375</ele>
        <time>2012-04-20T15:05:25Z</time>
      </trkpt>
      <trkpt lat="48.19731" lon="-4.0228">
        <ele>13.115112304688</ele>
        <time>2012-04-20T15:05:36Z</time>
      </trkpt>
      <trkpt lat="48.19727" lon="-4.02284">
        <ele>13.115112304688</ele>
        <time>2012-04-20T15:05:37Z</time>
      </trkpt>
      <trkpt lat="48.19692" lon="-4.02368">
        <ele>13.595825195312</ele>
        <time>2012-04-20T15:05:54Z</time>
      </trkpt>
      <trkpt lat="48.19684" lon="-4.02408">
        <ele>14.557006835938</ele>
        <time>2012-04-20T15:06:02Z</time>
      </trkpt>
      <trkpt lat="48.19682" lon="-4.02468">
        <ele>12.634399414062</ele>
        <time>2012-04-20T15:06:12Z</time>
      </trkpt>
      <trkpt lat="48.19685" lon="-4.0248">
        <ele>12.15380859375</ele>
        <time>2012-04-20T15:06:14Z</time>
      </trkpt>
      <trkpt lat="48.19691" lon="-4.02513">
        <ele>12.634399414062</ele>
        <time>2012-04-20T15:06:19Z</time>
      </trkpt>
      <trkpt lat="48.19695" lon="-4.02535">
        <ele>12.634399414062</ele>
        <time>2012-04-20T15:06:22Z</time>
      </trkpt>
      <trkpt lat="48.1975" lon="-4.02647">
        <ele>10.711791992188</ele>
        <time>2012-04-20T15:06:45Z</time>
      </trkpt>
      <trkpt lat="48.19805" lon="-4.02748">
        <ele>10.231201171875</ele>
        <time>2012-04-20T15:07:07Z</time>
      </trkpt>
      <trkpt lat="48.19845" lon="-4.02797">
        <ele>9.7506103515625</ele>
        <time>2012-04-20T15:07:21Z</time>
      </trkpt>
      <trkpt lat="48.19923" lon="-4.02866">
        <ele>10.711791992188</ele>
        <time>2012-04-20T15:07:43Z</time>
      </trkpt>
      <trkpt lat="48.1993" lon="-4.02868">
        <ele>10.711791992188</ele>
        <time>2012-04-20T15:07:45Z</time>
      </trkpt>
      <trkpt lat="48.19948" lon="-4.02863">
        <ele>10.711791992188</ele>
        <time>2012-04-20T15:07:49Z</time>
      </trkpt>
      <trkpt lat="48.1997" lon="-4.02857">
        <ele>11.192504882812</ele>
        <time>2012-04-20T15:07:54Z</time>
      </trkpt>
      <trkpt lat="48.20016" lon="-4.02818">
        <ele>10.711791992188</ele>
        <time>2012-04-20T15:08:07Z</time>
      </trkpt>
      <trkpt lat="48.20103" lon="-4.02777">
        <ele>11.192504882812</ele>
        <time>2012-04-20T15:08:30Z</time>
      </trkpt>
      <trkpt lat="48.20175" lon="-4.02762">
        <ele>12.15380859375</ele>
        <time>2012-04-20T15:08:49Z</time>
      </trkpt>
      <trkpt lat="48.20228" lon="-4.02757">
        <ele>11.673217773438</ele>
        <time>2012-04-20T15:09:03Z</time>
      </trkpt>
      <trkpt lat="48.20292" lon="-4.02751">
        <ele>11.673217773438</ele>
        <time>2012-04-20T15:09:19Z</time>
      </trkpt>
      <trkpt lat="48.20343" lon="-4.02746">
        <ele>12.15380859375</ele>
        <time>2012-04-20T15:09:32Z</time>
      </trkpt>
      <trkpt lat="48.20454" lon="-4.02739">
        <ele>11.673217773438</ele>
        <time>2012-04-20T15:09:57Z</time>
      </trkpt>
      <trkpt lat="48.20577" lon="-4.02733">
        <ele>9.7506103515625</ele>
        <time>2012-04-20T15:10:25Z</time>
      </trkpt>
      <trkpt lat="48.20636" lon="-4.02729">
        <ele>9.7506103515625</ele>
        <time>2012-04-20T15:10:38Z</time>
      </trkpt>
      <trkpt lat="48.20679" lon="-4.02726">
        <ele>8.7891845703125</ele>
        <time>2012-04-20T15:10:48Z</time>
      </trkpt>
      <trkpt lat="48.20784" lon="-4.02718">
        <ele>8.7891845703125</ele>
        <time>2012-04-20T15:11:11Z</time>
      </trkpt>
      <trkpt lat="48.20826" lon="-4.02702">
        <ele>8.30859375</ele>
        <time>2012-04-20T15:11:20Z</time>
      </trkpt>
      <trkpt lat="48.20841" lon="-4.02696">
        <ele>8.30859375</ele>
        <time>2012-04-20T15:11:23Z</time>
      </trkpt>
      <trkpt lat="48.20915" lon="-4.0263">
        <ele>8.7891845703125</ele>
        <time>2012-04-20T15:11:41Z</time>
      </trkpt>
      <trkpt lat="48.20995" lon="-4.02528">
        <ele>9.2698974609375</ele>
        <time>2012-04-20T15:12:04Z</time>
      </trkpt>
      <trkpt lat="48.21062" lon="-4.02444">
        <ele>9.7506103515625</ele>
        <time>2012-04-20T15:12:23Z</time>
      </trkpt>
      <trkpt lat="48.21134" lon="-4.0235">
        <ele>9.7506103515625</ele>
        <time>2012-04-20T15:12:45Z</time>
      </trkpt>
      <trkpt lat="48.21227" lon="-4.02267">
        <ele>10.711791992188</ele>
        <time>2012-04-20T15:13:09Z</time>
      </trkpt>
      <trkpt lat="48.21332" lon="-4.02207">
        <ele>10.231201171875</ele>
        <time>2012-04-20T15:13:33Z</time>
      </trkpt>
      <trkpt lat="48.21389" lon="-4.02192">
        <ele>10.231201171875</ele>
        <time>2012-04-20T15:13:46Z</time>
      </trkpt>
      <trkpt lat="48.21437" lon="-4.02214">
        <ele>10.711791992188</ele>
        <time>2012-04-20T15:14:00Z</time>
      </trkpt>
      <trkpt lat="48.21509" lon="-4.0232">
        <ele>10.231201171875</ele>
        <time>2012-04-20T15:14:22Z</time>
      </trkpt>
      <trkpt lat="48.21572" lon="-4.02494">
        <ele>10.231201171875</ele>
        <time>2012-04-20T15:14:48Z</time>
      </trkpt>
      <trkpt lat="48.21588" lon="-4.02627">
        <ele>11.192504882812</ele>
        <time>2012-04-20T15:15:06Z</time>
      </trkpt>
      <trkpt lat="48.2159" lon="-4.0264">
        <ele>12.15380859375</ele>
        <time>2012-04-20T15:15:08Z</time>
      </trkpt>
      <trkpt lat="48.21603" lon="-4.02771">
        <ele>11.673217773438</ele>
        <time>2012-04-20T15:15:27Z</time>
      </trkpt>
      <trkpt lat="48.21607" lon="-4.02812">
        <ele>12.15380859375</ele>
        <time>2012-04-20T15:15:33Z</time>
      </trkpt>
      <trkpt lat="48.21613" lon="-4.02915">
        <ele>13.115112304688</ele>
        <time>2012-04-20T15:15:48Z</time>
      </trkpt>
      <trkpt lat="48.21615" lon="-4.03037">
        <ele>12.634399414062</ele>
        <time>2012-04-20T15:16:06Z</time>
      </trkpt>
      <trkpt lat="48.21603" lon="-4.03158">
        <ele>13.115112304688</ele>
        <time>2012-04-20T15:16:23Z</time>
      </trkpt>
      <trkpt lat="48.21581" lon="-4.03242">
        <ele>12.15380859375</ele>
        <time>2012-04-20T15:16:39Z</time>
      </trkpt>
      <trkpt lat="48.21576" lon="-4.03256">
        <ele>12.15380859375</ele>
        <time>2012-04-20T15:16:49Z</time>
      </trkpt>
      <trkpt lat="48.21576" lon="-4.03256">
        <ele>12.15380859375</ele>
        <time>2012-04-20T15:17:24Z</time>
      </trkpt>
      <trkpt lat="48.21576" lon="-4.03256">
        <ele>10.711791992188</ele>
        <time>2012-04-20T15:27:20Z</time>
      </trkpt>
      <trkpt lat="48.21554" lon="-4.03317">
        <ele>10.231201171875</ele>
        <time>2012-04-20T15:27:33Z</time>
      </trkpt>
      <trkpt lat="48.21539" lon="-4.03359">
        <ele>8.7891845703125</ele>
        <time>2012-04-20T15:27:40Z</time>
      </trkpt>
      <trkpt lat="48.2148" lon="-4.03504">
        <ele>7.827880859375</ele>
        <time>2012-04-20T15:28:04Z</time>
      </trkpt>
      <trkpt lat="48.21436" lon="-4.03591">
        <ele>7.34716796875</ele>
        <time>2012-04-20T15:28:19Z</time>
      </trkpt>
      <trkpt lat="48.21364" lon="-4.03695">
        <ele>8.30859375</ele>
        <time>2012-04-20T15:28:41Z</time>
      </trkpt>
      <trkpt lat="48.21283" lon="-4.03759">
        <ele>11.192504882812</ele>
        <time>2012-04-20T15:29:01Z</time>
      </trkpt>
      <trkpt lat="48.21215" lon="-4.03797">
        <ele>14.076416015625</ele>
        <time>2012-04-20T15:29:16Z</time>
      </trkpt>
      <trkpt lat="48.21172" lon="-4.0382">
        <ele>15.518432617188</ele>
        <time>2012-04-20T15:29:26Z</time>
      </trkpt>
      <trkpt lat="48.21083" lon="-4.03861">
        <ele>14.557006835938</ele>
        <time>2012-04-20T15:29:46Z</time>
      </trkpt>
      <trkpt lat="48.2103" lon="-4.03878">
        <ele>17.921752929688</ele>
        <time>2012-04-20T15:29:58Z</time>
      </trkpt>
      <trkpt lat="48.20961" lon="-4.03883">
        <ele>17.441162109375</ele>
        <time>2012-04-20T15:30:12Z</time>
      </trkpt>
      <trkpt lat="48.20889" lon="-4.03884">
        <ele>16.479736328125</ele>
        <time>2012-04-20T15:30:27Z</time>
      </trkpt>
      <trkpt lat="48.20766" lon="-4.03874">
        <ele>18.40234375</ele>
        <time>2012-04-20T15:30:53Z</time>
      </trkpt>
      <trkpt lat="48.20636" lon="-4.03864">
        <ele>17.921752929688</ele>
        <time>2012-04-20T15:31:22Z</time>
      </trkpt>
      <trkpt lat="48.20542" lon="-4.03861">
        <ele>14.076416015625</ele>
        <time>2012-04-20T15:31:44Z</time>
      </trkpt>
      <trkpt lat="48.20446" lon="-4.03873">
        <ele>10.231201171875</ele>
        <time>2012-04-20T15:32:04Z</time>
      </trkpt>
      <trkpt lat="48.20366" lon="-4.03896">
        <ele>11.192504882812</ele>
        <time>2012-04-20T15:32:23Z</time>
      </trkpt>
      <trkpt lat="48.20306" lon="-4.03907">
        <ele>14.076416015625</ele>
        <time>2012-04-20T15:32:38Z</time>
      </trkpt>
      <trkpt lat="48.20298" lon="-4.03907">
        <ele>14.076416015625</ele>
        <time>2012-04-20T15:32:40Z</time>
      </trkpt>
      <trkpt lat="48.20265" lon="-4.03911">
        <ele>15.037719726562</ele>
        <time>2012-04-20T15:32:48Z</time>
      </trkpt>
      <trkpt lat="48.2016" lon="-4.03898">
        <ele>15.518432617188</ele>
        <time>2012-04-20T15:33:10Z</time>
      </trkpt>
      <trkpt lat="48.20064" lon="-4.03873">
        <ele>19.844360351562</ele>
        <time>2012-04-20T15:33:30Z</time>
      </trkpt>
      <trkpt lat="48.19975" lon="-4.03841">
        <ele>17.921752929688</ele>
        <time>2012-04-20T15:33:49Z</time>
      </trkpt>
      <trkpt lat="48.19898" lon="-4.03804">
        <ele>15.9990234375</ele>
        <time>2012-04-20T15:34:06Z</time>
      </trkpt>
      <trkpt lat="48.19838" lon="-4.03776">
        <ele>14.557006835938</ele>
        <time>2012-04-20T15:34:21Z</time>
      </trkpt>
      <trkpt lat="48.19751" lon="-4.0375">
        <ele>15.037719726562</ele>
        <time>2012-04-20T15:34:41Z</time>
      </trkpt>
      <trkpt lat="48.19663" lon="-4.03703">
        <ele>11.673217773438</ele>
        <time>2012-04-20T15:35:01Z</time>
      </trkpt>
      <trkpt lat="48.19607" lon="-4.0368">
        <ele>12.15380859375</ele>
        <time>2012-04-20T15:35:15Z</time>
      </trkpt>
      <trkpt lat="48.19525" lon="-4.03644">
        <ele>10.231201171875</ele>
        <time>2012-04-20T15:35:33Z</time>
      </trkpt>
      <trkpt lat="48.19428" lon="-4.03588">
        <ele>10.711791992188</ele>
        <time>2012-04-20T15:35:55Z</time>
      </trkpt>
      <trkpt lat="48.19324" lon="-4.03572">
        <ele>10.231201171875</ele>
        <time>2012-04-20T15:36:19Z</time>
      </trkpt>
      <trkpt lat="48.19223" lon="-4.03577">
        <ele>8.7891845703125</ele>
        <time>2012-04-20T15:36:43Z</time>
      </trkpt>
      <trkpt lat="48.19126" lon="-4.03599">
        <ele>8.30859375</ele>
        <time>2012-04-20T15:37:06Z</time>
      </trkpt>
      <trkpt lat="48.19036" lon="-4.03632">
        <ele>6.3858642578125</ele>
        <time>2012-04-20T15:37:27Z</time>
      </trkpt>
      <trkpt lat="48.18959" lon="-4.03645">
        <ele>7.34716796875</ele>
        <time>2012-04-20T15:37:46Z</time>
      </trkpt>
      <trkpt lat="48.18909" lon="-4.03667">
        <ele>6.3858642578125</ele>
        <time>2012-04-20T15:37:59Z</time>
      </trkpt>
      <trkpt lat="48.1888" lon="-4.03683">
        <ele>5.9052734375</ele>
        <time>2012-04-20T15:38:07Z</time>
      </trkpt>
      <trkpt lat="48.18868" lon="-4.03689">
        <ele>5.424560546875</ele>
        <time>2012-04-20T15:38:10Z</time>
      </trkpt>
      <trkpt lat="48.18781" lon="-4.03713">
        <ele>3.982666015625</ele>
        <time>2012-04-20T15:38:29Z</time>
      </trkpt>
      <trkpt lat="48.18662" lon="-4.03813">
        <ele>3.021240234375</ele>
        <time>2012-04-20T15:38:57Z</time>
      </trkpt>
      <trkpt lat="48.18577" lon="-4.03891">
        <ele>4.4632568359375</ele>
        <time>2012-04-20T15:39:20Z</time>
      </trkpt>
      <trkpt lat="48.18478" lon="-4.03962">
        <ele>3.982666015625</ele>
        <time>2012-04-20T15:39:44Z</time>
      </trkpt>
      <trkpt lat="48.18379" lon="-4.04031">
        <ele>2.5406494140625</ele>
        <time>2012-04-20T15:40:09Z</time>
      </trkpt>
      <trkpt lat="48.18298" lon="-4.04091">
        <ele>4.94384765625</ele>
        <time>2012-04-20T15:40:30Z</time>
      </trkpt>
      <trkpt lat="48.18179" lon="-4.04188">
        <ele>3.501953125</ele>
        <time>2012-04-20T15:41:00Z</time>
      </trkpt>
      <trkpt lat="48.18142" lon="-4.04262">
        <ele>3.501953125</ele>
        <time>2012-04-20T15:41:15Z</time>
      </trkpt>
      <trkpt lat="48.18145" lon="-4.04314">
        <ele>3.982666015625</ele>
        <time>2012-04-20T15:41:24Z</time>
      </trkpt>
      <trkpt lat="48.18157" lon="-4.04442">
        <ele>4.4632568359375</ele>
        <time>2012-04-20T15:41:43Z</time>
      </trkpt>
      <trkpt lat="48.18167" lon="-4.04551">
        <ele>3.982666015625</ele>
        <time>2012-04-20T15:42:01Z</time>
      </trkpt>
      <trkpt lat="48.18178" lon="-4.04619">
        <ele>3.501953125</ele>
        <time>2012-04-20T15:42:14Z</time>
      </trkpt>
      <trkpt lat="48.18205" lon="-4.04736">
        <ele>2.5406494140625</ele>
        <time>2012-04-20T15:42:33Z</time>
      </trkpt>
      <trkpt lat="48.18224" lon="-4.04819">
        <ele>1.579345703125</ele>
        <time>2012-04-20T15:42:49Z</time>
      </trkpt>
      <trkpt lat="48.18258" lon="-4.04925">
        <ele>1.0986328125</ele>
        <time>2012-04-20T15:43:11Z</time>
      </trkpt>
      <trkpt lat="48.18313" lon="-4.05041">
        <ele>1.579345703125</ele>
        <time>2012-04-20T15:43:35Z</time>
      </trkpt>
      <trkpt lat="48.18399" lon="-4.05131">
        <ele>2.06005859375</ele>
        <time>2012-04-20T15:44:02Z</time>
      </trkpt>
      <trkpt lat="48.18453" lon="-4.05171">
        <ele>2.06005859375</ele>
        <time>2012-04-20T15:44:19Z</time>
      </trkpt>
      <trkpt lat="48.18518" lon="-4.05225">
        <ele>2.06005859375</ele>
        <time>2012-04-20T15:44:39Z</time>
      </trkpt>
      <trkpt lat="48.18577" lon="-4.05277">
        <ele>2.06005859375</ele>
        <time>2012-04-20T15:44:57Z</time>
      </trkpt>
      <trkpt lat="48.1864" lon="-4.05321">
        <ele>2.06005859375</ele>
        <time>2012-04-20T15:45:17Z</time>
      </trkpt>
      <trkpt lat="48.1868" lon="-4.05337">
        <ele>1.579345703125</ele>
        <time>2012-04-20T15:45:27Z</time>
      </trkpt>
      <trkpt lat="48.18759" lon="-4.05344">
        <ele>1.0986328125</ele>
        <time>2012-04-20T15:45:47Z</time>
      </trkpt>
      <trkpt lat="48.188" lon="-4.05337">
        <ele>2.06005859375</ele>
        <time>2012-04-20T15:46:02Z</time>
      </trkpt>
      <trkpt lat="48.18825" lon="-4.05324">
        <ele>3.501953125</ele>
        <time>2012-04-20T15:46:09Z</time>
      </trkpt>
      <trkpt lat="48.18843" lon="-4.05304">
        <ele>3.982666015625</ele>
        <time>2012-04-20T15:46:15Z</time>
      </trkpt>
      <trkpt lat="48.18901" lon="-4.05241">
        <ele>2.5406494140625</ele>
        <time>2012-04-20T15:46:33Z</time>
      </trkpt>
      <trkpt lat="48.19008" lon="-4.05172">
        <ele>2.5406494140625</ele>
        <time>2012-04-20T15:47:00Z</time>
      </trkpt>
      <trkpt lat="48.19103" lon="-4.0515">
        <ele>3.021240234375</ele>
        <time>2012-04-20T15:47:22Z</time>
      </trkpt>
      <trkpt lat="48.19184" lon="-4.0513">
        <ele>3.501953125</ele>
        <time>2012-04-20T15:47:43Z</time>
      </trkpt>
      <trkpt lat="48.19235" lon="-4.05108">
        <ele>3.982666015625</ele>
        <time>2012-04-20T15:47:56Z</time>
      </trkpt>
      <trkpt lat="48.19324" lon="-4.05076">
        <ele>3.501953125</ele>
        <time>2012-04-20T15:48:19Z</time>
      </trkpt>
      <trkpt lat="48.19422" lon="-4.05034">
        <ele>3.021240234375</ele>
        <time>2012-04-20T15:48:43Z</time>
      </trkpt>
      <trkpt lat="48.19515" lon="-4.04989">
        <ele>2.5406494140625</ele>
        <time>2012-04-20T15:49:04Z</time>
      </trkpt>
      <trkpt lat="48.19604" lon="-4.04963">
        <ele>2.5406494140625</ele>
        <time>2012-04-20T15:49:26Z</time>
      </trkpt>
      <trkpt lat="48.1971" lon="-4.04933">
        <ele>2.5406494140625</ele>
        <time>2012-04-20T15:49:51Z</time>
      </trkpt>
      <trkpt lat="48.19805" lon="-4.04909">
        <ele>2.06005859375</ele>
        <time>2012-04-20T15:50:13Z</time>
      </trkpt>
      <trkpt lat="48.19923" lon="-4.04861">
        <ele>3.021240234375</ele>
        <time>2012-04-20T15:50:42Z</time>
      </trkpt>
      <trkpt lat="48.19998" lon="-4.04824">
        <ele>3.021240234375</ele>
        <time>2012-04-20T15:51:01Z</time>
      </trkpt>
      <trkpt lat="48.20028" lon="-4.04814">
        <ele>3.021240234375</ele>
        <time>2012-04-20T15:51:09Z</time>
      </trkpt>
      <trkpt lat="48.20045" lon="-4.04815">
        <ele>1.579345703125</ele>
        <time>2012-04-20T15:51:13Z</time>
      </trkpt>
      <trkpt lat="48.20102" lon="-4.04826">
        <ele>1.579345703125</ele>
        <time>2012-04-20T15:51:27Z</time>
      </trkpt>
      <trkpt lat="48.2018" lon="-4.04879">
        <ele>0.137451171875</ele>
        <time>2012-04-20T15:51:48Z</time>
      </trkpt>
      <trkpt lat="48.20264" lon="-4.04942">
        <ele>3.021240234375</ele>
        <time>2012-04-20T15:52:11Z</time>
      </trkpt>
      <trkpt lat="48.20347" lon="-4.0502">
        <ele>2.06005859375</ele>
        <time>2012-04-20T15:52:34Z</time>
      </trkpt>
      <trkpt lat="48.20419" lon="-4.05127">
        <ele>3.982666015625</ele>
        <time>2012-04-20T15:52:57Z</time>
      </trkpt>
      <trkpt lat="48.20484" lon="-4.05238">
        <ele>-1.3046875</ele>
        <time>2012-04-20T15:53:20Z</time>
      </trkpt>
      <trkpt lat="48.20559" lon="-4.05384">
        <ele>-0.8240966796875</ele>
        <time>2012-04-20T15:53:47Z</time>
      </trkpt>
      <trkpt lat="48.20611" lon="-4.05507">
        <ele>3.021240234375</ele>
        <time>2012-04-20T15:54:10Z</time>
      </trkpt>
      <trkpt lat="48.20634" lon="-4.05585">
        <ele>4.4632568359375</ele>
        <time>2012-04-20T15:54:27Z</time>
      </trkpt>
      <trkpt lat="48.20635" lon="-4.0559">
        <ele>6.866455078125</ele>
        <time>2012-04-20T15:54:42Z</time>
      </trkpt>
      <trkpt lat="48.20641" lon="-4.05626">
        <ele>7.34716796875</ele>
        <time>2012-04-20T15:54:55Z</time>
      </trkpt>
      <trkpt lat="48.20657" lon="-4.05755">
        <ele>8.7891845703125</ele>
        <time>2012-04-20T15:55:17Z</time>
      </trkpt>
      <trkpt lat="48.2066" lon="-4.05868">
        <ele>10.231201171875</ele>
        <time>2012-04-20T15:55:34Z</time>
      </trkpt>
      <trkpt lat="48.2065" lon="-4.05973">
        <ele>12.634399414062</ele>
        <time>2012-04-20T15:55:52Z</time>
      </trkpt>
      <trkpt lat="48.20627" lon="-4.06068">
        <ele>12.634399414062</ele>
        <time>2012-04-20T15:56:08Z</time>
      </trkpt>
      <trkpt lat="48.20593" lon="-4.06194">
        <ele>12.634399414062</ele>
        <time>2012-04-20T15:56:29Z</time>
      </trkpt>
      <trkpt lat="48.20557" lon="-4.063">
        <ele>11.673217773438</ele>
        <time>2012-04-20T15:56:47Z</time>
      </trkpt>
      <trkpt lat="48.20525" lon="-4.06373">
        <ele>7.827880859375</ele>
        <time>2012-04-20T15:57:01Z</time>
      </trkpt>
      <trkpt lat="48.20474" lon="-4.06453">
        <ele>8.7891845703125</ele>
        <time>2012-04-20T15:57:19Z</time>
      </trkpt>
      <trkpt lat="48.20436" lon="-4.06499">
        <ele>8.30859375</ele>
        <time>2012-04-20T15:57:32Z</time>
      </trkpt>
      <trkpt lat="48.2039" lon="-4.06556">
        <ele>8.7891845703125</ele>
        <time>2012-04-20T15:57:48Z</time>
      </trkpt>
      <trkpt lat="48.20297" lon="-4.06654">
        <ele>8.30859375</ele>
        <time>2012-04-20T15:58:16Z</time>
      </trkpt>
      <trkpt lat="48.20258" lon="-4.06684">
        <ele>7.827880859375</ele>
        <time>2012-04-20T15:58:27Z</time>
      </trkpt>
      <trkpt lat="48.20177" lon="-4.06759">
        <ele>3.021240234375</ele>
        <time>2012-04-20T15:58:51Z</time>
      </trkpt>
      <trkpt lat="48.20174" lon="-4.06762">
        <ele>3.021240234375</ele>
        <time>2012-04-20T15:58:52Z</time>
      </trkpt>
      <trkpt lat="48.20113" lon="-4.06825">
        <ele>2.5406494140625</ele>
        <time>2012-04-20T15:59:09Z</time>
      </trkpt>
      <trkpt lat="48.20042" lon="-4.06911">
        <ele>1.0986328125</ele>
        <time>2012-04-20T15:59:31Z</time>
      </trkpt>
      <trkpt lat="48.19947" lon="-4.0701">
        <ele>0.6180419921875</ele>
        <time>2012-04-20T16:00:00Z</time>
      </trkpt>
      <trkpt lat="48.19875" lon="-4.07104">
        <ele>0.6180419921875</ele>
        <time>2012-04-20T16:00:26Z</time>
      </trkpt>
      <trkpt lat="48.19819" lon="-4.07177">
        <ele>0.137451171875</ele>
        <time>2012-04-20T16:00:46Z</time>
      </trkpt>
      <trkpt lat="48.19764" lon="-4.07245">
        <ele>0.137451171875</ele>
        <time>2012-04-20T16:01:06Z</time>
      </trkpt>
      <trkpt lat="48.19709" lon="-4.073">
        <ele>0.137451171875</ele>
        <time>2012-04-20T16:01:23Z</time>
      </trkpt>
      <trkpt lat="48.1959" lon="-4.07369">
        <ele>1.0986328125</ele>
        <time>2012-04-20T16:01:55Z</time>
      </trkpt>
      <trkpt lat="48.19508" lon="-4.0741">
        <ele>2.06005859375</ele>
        <time>2012-04-20T16:02:16Z</time>
      </trkpt>
      <trkpt lat="48.19411" lon="-4.07462">
        <ele>1.0986328125</ele>
        <time>2012-04-20T16:02:41Z</time>
      </trkpt>
      <trkpt lat="48.19363" lon="-4.07497">
        <ele>0.6180419921875</ele>
        <time>2012-04-20T16:02:55Z</time>
      </trkpt>
      <trkpt lat="48.19275" lon="-4.07572">
        <ele>0.6180419921875</ele>
        <time>2012-04-20T16:03:21Z</time>
      </trkpt>
      <trkpt lat="48.19206" lon="-4.07646">
        <ele>0.137451171875</ele>
        <time>2012-04-20T16:03:43Z</time>
      </trkpt>
      <trkpt lat="48.19149" lon="-4.07734">
        <ele>-0.8240966796875</ele>
        <time>2012-04-20T16:04:04Z</time>
      </trkpt>
      <trkpt lat="48.19089" lon="-4.07859">
        <ele>-0.3433837890625</ele>
        <time>2012-04-20T16:04:31Z</time>
      </trkpt>
      <trkpt lat="48.19057" lon="-4.07962">
        <ele>-1.7852783203125</ele>
        <time>2012-04-20T16:04:51Z</time>
      </trkpt>
      <trkpt lat="48.19008" lon="-4.08091">
        <ele>-3.227294921875</ele>
        <time>2012-04-20T16:05:16Z</time>
      </trkpt>
      <trkpt lat="48.18956" lon="-4.08222">
        <ele>-0.8240966796875</ele>
        <time>2012-04-20T16:05:41Z</time>
      </trkpt>
      <trkpt lat="48.1894" lon="-4.08263">
        <ele>-1.3046875</ele>
        <time>2012-04-20T16:05:50Z</time>
      </trkpt>
      <trkpt lat="48.18912" lon="-4.08323">
        <ele>-1.3046875</ele>
        <time>2012-04-20T16:06:02Z</time>
      </trkpt>
      <trkpt lat="48.18867" lon="-4.08396">
        <ele>0.6180419921875</ele>
        <time>2012-04-20T16:06:18Z</time>
      </trkpt>
      <trkpt lat="48.18836" lon="-4.08492">
        <ele>2.06005859375</ele>
        <time>2012-04-20T16:06:36Z</time>
      </trkpt>
      <trkpt lat="48.18823" lon="-4.08593">
        <ele>2.06005859375</ele>
        <time>2012-04-20T16:06:54Z</time>
      </trkpt>
      <trkpt lat="48.18825" lon="-4.08728">
        <ele>-0.3433837890625</ele>
        <time>2012-04-20T16:07:17Z</time>
      </trkpt>
      <trkpt lat="48.1884" lon="-4.08864">
        <ele>-2.7467041015625</ele>
        <time>2012-04-20T16:07:39Z</time>
      </trkpt>
      <trkpt lat="48.18843" lon="-4.08876">
        <ele>-2.7467041015625</ele>
        <time>2012-04-20T16:07:41Z</time>
      </trkpt>
      <trkpt lat="48.18883" lon="-4.08993">
        <ele>-3.7078857421875</ele>
        <time>2012-04-20T16:08:03Z</time>
      </trkpt>
      <trkpt lat="48.18945" lon="-4.09076">
        <ele>-4.6693115234375</ele>
        <time>2012-04-20T16:08:25Z</time>
      </trkpt>
      <trkpt lat="48.18987" lon="-4.09106">
        <ele>-4.6693115234375</ele>
        <time>2012-04-20T16:08:40Z</time>
      </trkpt>
      <trkpt lat="48.18991" lon="-4.09101">
        <ele>-4.1885986328125</ele>
        <time>2012-04-20T16:08:50Z</time>
      </trkpt>
      <trkpt lat="48.18966" lon="-4.09102">
        <ele>-3.7078857421875</ele>
        <time>2012-04-20T16:09:01Z</time>
      </trkpt>
      <trkpt lat="48.18949" lon="-4.09089">
        <ele>-3.227294921875</ele>
        <time>2012-04-20T16:09:08Z</time>
      </trkpt>
      <trkpt lat="48.18949" lon="-4.09078">
        <ele>-3.7078857421875</ele>
        <time>2012-04-20T16:09:19Z</time>
      </trkpt>
      <trkpt lat="48.18951" lon="-4.09073">
        <ele>-3.7078857421875</ele>
        <time>2012-04-20T16:09:38Z</time>
      </trkpt>
      <trkpt lat="48.18946" lon="-4.09041">
        <ele>-2.7467041015625</ele>
        <time>2012-04-20T16:09:58Z</time>
      </trkpt>
      <trkpt lat="48.18953" lon="-4.09001">
        <ele>-0.8240966796875</ele>
        <time>2012-04-20T16:10:22Z</time>
      </trkpt>
      <trkpt lat="48.18986" lon="-4.09013">
        <ele>0.6180419921875</ele>
        <time>2012-04-20T16:10:50Z</time>
      </trkpt>
      <trkpt lat="48.18987" lon="-4.09016">
        <ele>0.137451171875</ele>
        <time>2012-04-20T16:11:01Z</time>
      </trkpt>
      <trkpt lat="48.18987" lon="-4.09023">
        <ele>0.6180419921875</ele>
        <time>2012-04-20T16:11:19Z</time>
      </trkpt>
      <trkpt lat="48.18988" lon="-4.09024">
        <ele>0.6180419921875</ele>
        <time>2012-04-20T16:11:56Z</time>
      </trkpt>
      <trkpt lat="48.18989" lon="-4.09024">
        <ele>1.0986328125</ele>
        <time>2012-04-20T16:16:56Z</time>
      </trkpt>
    </trkseg>
  </trk>
</gpx>